Time,TemperatureF,DewpointF,PressureIn,WindDirection,WindDirectionDegrees,WindSpeedMPH,WindSpeedGustMPH,Humidity,HourlyPrecipIn,Conditions,Clouds,dailyrainin,SoftwareType,DateUTC
2013-01-18 00:12:00,34.2,33.7,29.99,WNW,292,2.7,-999.0,98,-99.99,,,0.00,Acu-Link.com,2013-01-18 05:12:00,
2013-01-18 00:27:00,34.0,33.5,29.99,SW,225,2.7,-999.0,98,-99.99,,,0.00,Acu-Link.com,2013-01-18 05:27:00,
2013-01-18 00:42:00,34.0,33.5,29.98,NNW,337,1.7,-999.0,98,-99.99,,,0.00,Acu-Link.com,2013-01-18 05:42:00,
2013-01-18 00:57:00,34.0,33.5,29.99,NNW,337,0.0,-999.0,98,-99.99,,,0.00,Acu-Link.com,2013-01-18 05:57:00,
2013-01-18 01:12:00,34.2,33.7,30.01,South,180,0.0,-999.0,98,-99.99,,,0.00,Acu-Link.com,2013-01-18 06:12:00,
2013-01-18 01:27:00,34.3,33.8,30.01,WNW,292,3.2,-999.0,98,-99.99,,,0.00,Acu-Link.com,2013-01-18 06:27:00,
2013-01-18 01:58:00,34.9,34.4,30.04,NNW,337,2.7,-999.0,98,-99.99,,,0.02,Acu-Link.com,2013-01-18 06:58:00,
2013-01-18 02:13:00,35.1,34.6,30.05,West,270,2.2,-999.0,98,-99.99,,,0.03,Acu-Link.com,2013-01-18 07:13:00,
2013-01-18 02:28:00,35.1,34.6,30.05,North,0,1.7,-999.0,98,-99.99,,,0.03,Acu-Link.com,2013-01-18 07:28:00,
2013-01-18 02:43:00,35.1,34.6,30.06,West,270,1.1,-999.0,98,-99.99,,,0.04,Acu-Link.com,2013-01-18 07:43:00,
2013-01-18 02:58:00,35.1,34.6,30.06,West,270,2.7,-999.0,98,-99.99,,,0.04,Acu-Link.com,2013-01-18 07:58:00,
2013-01-18 03:13:00,34.7,34.2,30.06,SSE,157,0.0,-999.0,98,-99.99,,,0.04,Acu-Link.com,2013-01-18 08:13:00,
2013-01-18 03:28:00,34.3,33.8,30.07,West,270,2.7,-999.0,98,-99.99,,,0.04,Acu-Link.com,2013-01-18 08:28:00,
2013-01-18 03:44:00,34.2,33.7,30.08,ESE,112,0.0,-999.0,98,-99.99,,,0.04,Acu-Link.com,2013-01-18 08:44:00,
2013-01-18 03:59:00,34.0,33.5,30.08,WSW,247,1.1,-999.0,98,-99.99,,,0.04,Acu-Link.com,2013-01-18 08:59:00,
2013-01-18 04:14:00,34.0,33.5,30.09,SW,225,0.0,-999.0,98,-99.99,,,0.05,Acu-Link.com,2013-01-18 09:14:00,
2013-01-18 04:29:00,33.8,33.3,30.09,West,270,0.0,-999.0,98,-99.99,,,0.05,Acu-Link.com,2013-01-18 09:29:00,
2013-01-18 04:44:00,33.6,33.1,30.10,West,270,0.0,-999.0,98,-99.99,,,0.05,Acu-Link.com,2013-01-18 09:44:00,
2013-01-18 04:59:00,33.6,33.1,30.10,South,180,0.0,-999.0,98,-99.99,,,0.05,Acu-Link.com,2013-01-18 09:59:00,
2013-01-18 05:14:00,33.4,32.9,30.11,SE,135,0.0,-999.0,98,-99.99,,,0.05,Acu-Link.com,2013-01-18 10:14:00,
2013-01-18 05:29:00,33.1,32.6,30.12,WNW,292,1.1,-999.0,98,-99.99,,,0.05,Acu-Link.com,2013-01-18 10:29:00,
2013-01-18 05:44:00,33.1,32.6,30.13,SSW,202,1.7,-999.0,98,-99.99,,,0.05,Acu-Link.com,2013-01-18 10:44:00,
2013-01-18 06:00:00,32.9,32.4,30.13,WNW,292,1.1,-999.0,98,-99.99,,,0.05,Acu-Link.com,2013-01-18 11:00:00,
2013-01-18 06:15:00,32.7,32.2,30.14,SSW,202,0.0,-999.0,98,-99.99,,,0.05,Acu-Link.com,2013-01-18 11:15:00,
2013-01-18 06:30:00,32.4,31.9,30.15,SSE,157,0.0,-999.0,98,-99.99,,,0.05,Acu-Link.com,2013-01-18 11:30:00,
2013-01-18 06:45:00,32.4,31.9,30.16,ESE,112,0.0,-999.0,98,-99.99,,,0.05,Acu-Link.com,2013-01-18 11:45:00,
2013-01-18 07:00:00,32.4,31.9,30.17,WNW,292,0.0,-999.0,98,-99.99,,,0.05,Acu-Link.com,2013-01-18 12:00:00,
2013-01-18 07:15:00,32.5,32.0,30.18,NNW,337,3.7,-999.0,98,-99.99,,,0.05,Acu-Link.com,2013-01-18 12:15:00,
2013-01-18 07:30:00,32.5,32.0,30.18,West,270,2.2,-999.0,98,-99.99,,,0.05,Acu-Link.com,2013-01-18 12:30:00,
2013-01-18 07:45:00,32.7,32.2,30.20,SSW,202,2.2,-999.0,98,-99.99,,,0.05,Acu-Link.com,2013-01-18 12:45:00,
2013-01-18 08:00:00,32.7,32.2,30.21,ENE,67,2.2,-999.0,98,-99.99,,,0.05,Acu-Link.com,2013-01-18 13:00:00,
2013-01-18 08:16:00,33.1,32.6,30.21,NNW,337,1.7,-999.0,98,-99.99,,,0.05,Acu-Link.com,2013-01-18 13:16:00,
2013-01-18 08:46:00,34.0,33.5,30.23,NW,315,2.2,-999.0,98,-99.99,,,0.05,Acu-Link.com,2013-01-18 13:46:00,
2013-01-18 09:01:00,34.2,33.7,30.25,NW,315,1.7,-999.0,98,-99.99,,,0.05,Acu-Link.com,2013-01-18 14:01:00,
2013-01-18 09:16:00,35.1,34.6,30.27,WNW,292,2.2,-999.0,98,-99.99,,,0.05,Acu-Link.com,2013-01-18 14:16:00,
2013-01-18 09:31:00,36.9,36.4,30.28,SSE,157,1.1,-999.0,98,-99.99,,,0.06,Acu-Link.com,2013-01-18 14:31:00,
2013-01-18 09:46:00,39.4,38.9,30.30,NE,45,3.2,-999.0,98,-99.99,,,0.07,Acu-Link.com,2013-01-18 14:46:00,
2013-01-18 10:01:00,41.2,40.7,30.30,NNE,22,1.7,-999.0,98,-99.99,,,0.08,Acu-Link.com,2013-01-18 15:01:00,
2013-01-18 10:16:00,41.5,41.0,30.30,WNW,292,4.2,-999.0,98,-99.99,,,0.09,Acu-Link.com,2013-01-18 15:16:00,
2013-01-18 10:32:00,40.1,38.8,30.31,NW,315,2.7,-999.0,95,-99.99,,,0.10,Acu-Link.com,2013-01-18 15:32:00,
2013-01-18 10:47:00,41.0,38.3,30.30,East,90,3.7,-999.0,90,-99.99,,,0.12,Acu-Link.com,2013-01-18 15:47:00,
2013-01-18 11:02:00,41.2,36.1,30.31,NE,45,3.7,-999.0,82,-99.99,,,0.12,Acu-Link.com,2013-01-18 16:02:00,
2013-01-18 11:17:00,41.9,35.6,30.31,North,0,1.7,-999.0,78,-99.99,,,0.14,Acu-Link.com,2013-01-18 16:17:00,
2013-01-18 11:32:00,42.3,35.0,30.31,NNE,22,2.7,-999.0,75,-99.99,,,0.15,Acu-Link.com,2013-01-18 16:32:00,
2013-01-18 11:47:00,43.2,35.1,30.30,ESE,112,1.7,-999.0,73,-99.99,,,0.16,Acu-Link.com,2013-01-18 16:47:00,
2013-01-18 12:02:00,43.2,34.1,30.29,NE,45,5.3,-999.0,70,-99.99,,,0.18,Acu-Link.com,2013-01-18 17:02:00,
2013-01-18 12:17:00,44.2,35.4,30.29,NNE,22,7.8,-999.0,71,-99.99,,,0.20,Acu-Link.com,2013-01-18 17:17:00,
2013-01-18 12:32:00,44.1,33.9,30.29,NE,45,2.7,-999.0,67,-99.99,,,0.21,Acu-Link.com,2013-01-18 17:32:00,
2013-01-18 12:48:00,45.1,34.0,30.29,ENE,67,3.7,-999.0,65,-99.99,,,0.22,Acu-Link.com,2013-01-18 17:48:00,
2013-01-18 13:03:00,44.6,32.4,30.29,SSW,202,1.7,-999.0,62,-99.99,,,0.24,Acu-Link.com,2013-01-18 18:03:00,
2013-01-18 13:18:00,44.6,31.2,30.30,SW,225,3.2,-999.0,59,-99.99,,,0.24,Acu-Link.com,2013-01-18 18:18:00,
2013-01-18 13:33:00,44.4,31.0,30.30,ENE,67,1.7,-999.0,59,-99.99,,,0.25,Acu-Link.com,2013-01-18 18:33:00,
2013-01-18 13:48:00,45.3,32.2,30.29,NNW,337,3.2,-999.0,60,-99.99,,,0.25,Acu-Link.com,2013-01-18 18:48:00,
2013-01-18 14:03:00,44.4,31.0,30.30,SSW,202,1.7,-999.0,59,-99.99,,,0.26,Acu-Link.com,2013-01-18 19:03:00,
2013-01-18 14:18:00,45.5,30.3,30.30,North,0,2.2,-999.0,55,-99.99,,,0.26,Acu-Link.com,2013-01-18 19:18:00,
2013-01-18 14:33:00,45.9,31.1,30.30,North,0,2.7,-999.0,56,-99.99,,,0.27,Acu-Link.com,2013-01-18 19:33:00,
2013-01-18 14:48:00,45.7,31.4,30.29,SSE,157,5.3,-999.0,57,-99.99,,,0.27,Acu-Link.com,2013-01-18 19:48:00,
2013-01-18 15:04:00,46.2,31.4,30.30,North,0,2.2,-999.0,56,-99.99,,,0.27,Acu-Link.com,2013-01-18 20:04:00,
2013-01-18 15:19:00,45.9,31.1,30.30,NW,315,2.2,-999.0,56,-99.99,,,0.28,Acu-Link.com,2013-01-18 20:19:00,
2013-01-18 15:34:00,47.1,31.3,30.30,NNW,337,2.7,-999.0,54,-99.99,,,0.28,Acu-Link.com,2013-01-18 20:34:00,
2013-01-18 15:49:00,45.9,30.2,30.30,WNW,292,2.2,-999.0,54,-99.99,,,0.28,Acu-Link.com,2013-01-18 20:49:00,
2013-01-18 16:04:00,45.1,30.8,30.31,NNW,337,2.2,-999.0,57,-99.99,,,0.28,Acu-Link.com,2013-01-18 21:04:00,
2013-01-18 16:19:00,44.6,30.7,30.31,SSE,157,1.7,-999.0,58,-99.99,,,0.28,Acu-Link.com,2013-01-18 21:19:00,
2013-01-18 16:34:00,43.9,29.7,30.31,ENE,67,1.1,-999.0,57,-99.99,,,0.28,Acu-Link.com,2013-01-18 21:34:00,
2013-01-18 16:49:00,43.2,29.0,30.31,NNW,337,2.2,-999.0,57,-99.99,,,0.28,Acu-Link.com,2013-01-18 21:49:00,
2013-01-18 17:04:00,42.4,29.5,30.33,North,0,1.1,-999.0,60,-99.99,,,0.28,Acu-Link.com,2013-01-18 22:04:00,
2013-01-18 17:19:00,41.5,28.7,30.34,ENE,67,0.0,-999.0,60,-99.99,,,0.28,Acu-Link.com,2013-01-18 22:19:00,
2013-01-18 17:35:00,40.3,28.7,30.34,NNE,22,0.0,-999.0,63,-99.99,,,0.28,Acu-Link.com,2013-01-18 22:35:00,
2013-01-18 17:50:00,39.4,30.1,30.34,NW,315,1.7,-999.0,69,-99.99,,,0.28,Acu-Link.com,2013-01-18 22:50:00,
2013-01-18 18:05:00,38.3,31.7,30.36,SSW,202,0.0,-999.0,77,-99.99,,,0.28,Acu-Link.com,2013-01-18 23:05:00,
2013-01-18 18:20:00,37.2,33.1,30.36,NNW,337,1.7,-999.0,85,-99.99,,,0.28,Acu-Link.com,2013-01-18 23:20:00,
2013-01-18 18:35:00,36.3,32.8,30.35,NW,315,0.0,-999.0,87,-99.99,,,0.28,Acu-Link.com,2013-01-18 23:35:00,
2013-01-18 18:50:00,35.4,32.8,30.36,North,0,0.0,-999.0,90,-99.99,,,0.28,Acu-Link.com,2013-01-18 23:50:00,
2013-01-18 19:05:00,34.9,33.1,30.36,WNW,292,0.0,-999.0,93,-99.99,,,0.28,Acu-Link.com,2013-01-19 00:05:00,
2013-01-18 19:20:00,34.3,33.0,30.36,NNW,337,0.0,-999.0,95,-99.99,,,0.28,Acu-Link.com,2013-01-19 00:20:00,
2013-01-18 19:35:00,34.0,33.5,30.36,SSW,202,0.0,-999.0,98,-99.99,,,0.28,Acu-Link.com,2013-01-19 00:35:00,
2013-01-18 19:51:00,33.8,33.3,30.36,NW,315,2.7,-999.0,98,-99.99,,,0.28,Acu-Link.com,2013-01-19 00:51:00,
2013-01-18 20:06:00,33.8,33.3,30.37,South,180,0.0,-999.0,98,-99.99,,,0.28,Acu-Link.com,2013-01-19 01:06:00,
2013-01-18 20:36:00,32.5,32.0,30.37,NNW,337,0.0,-999.0,98,-99.99,,,0.28,Acu-Link.com,2013-01-19 01:36:00,
2013-01-18 20:51:00,32.2,31.7,30.36,WNW,292,0.0,-999.0,98,-99.99,,,0.28,Acu-Link.com,2013-01-19 01:51:00,
2013-01-18 21:06:00,32.0,31.5,30.37,ESE,112,0.0,-999.0,98,-99.99,,,0.28,Acu-Link.com,2013-01-19 02:06:00,
2013-01-18 21:21:00,31.5,31.0,30.37,NNW,337,0.0,-999.0,98,-99.99,,,0.28,Acu-Link.com,2013-01-19 02:21:00,
2013-01-18 21:36:00,30.9,30.4,30.37,WNW,292,0.0,-999.0,98,-99.99,,,0.28,Acu-Link.com,2013-01-19 02:36:00,
2013-01-18 21:51:00,30.6,30.1,30.37,SW,225,0.0,-999.0,98,-99.99,,,0.28,Acu-Link.com,2013-01-19 02:51:00,
2013-01-18 22:07:00,30.0,29.5,30.35,WNW,292,0.0,-999.0,98,-99.99,,,0.28,Acu-Link.com,2013-01-19 03:07:00,
2013-01-18 22:22:00,30.4,29.9,30.35,SSE,157,0.0,-999.0,98,-99.99,,,0.28,Acu-Link.com,2013-01-19 03:22:00,
2013-01-18 22:37:00,30.2,29.7,30.35,WNW,292,0.0,-999.0,98,-99.99,,,0.28,Acu-Link.com,2013-01-19 03:37:00,
2013-01-18 22:52:00,29.7,29.2,30.35,ESE,112,0.0,-999.0,98,-99.99,,,0.28,Acu-Link.com,2013-01-19 03:52:00,
2013-01-18 23:07:00,28.9,28.4,30.35,WNW,292,0.0,-999.0,98,-99.99,,,0.28,Acu-Link.com,2013-01-19 04:07:00,
2013-01-18 23:22:00,28.8,28.3,30.35,WNW,292,0.0,-999.0,98,-99.99,,,0.28,Acu-Link.com,2013-01-19 04:22:00,
2013-01-18 23:37:00,28.8,28.3,30.33,NNW,337,0.0,-999.0,98,-99.99,,,0.28,Acu-Link.com,2013-01-19 04:37:00,
2013-01-18 23:52:00,28.9,28.4,30.33,NW,315,0.0,-999.0,98,-99.99,,,0.28,Acu-Link.com,2013-01-19 04:52:00,